00:56
Airports
History
Links
Donate
Help keep this website running!
PayPal
Bitcoin
This page is community maintained. The information is intended for PC simulator navigation or reference.
Always use approved charts for navigation.
SSXO
Pousada das Aguias
Pousada das Aguias (SSXO)
Presidente Castelo Branco, Parana, Brazil (87180)
4
Lat/Lng:23° 17' 20" S / 52° 7' 45" W
-23.288889 / -52.129167
Elevation:1932'ft / 589mMSL
ID / ICAO:SSXO
Runways:1
Longest:12-30
Gravel 998m / 3,274ft
Nearby Weather00:00 GMT 2017-09-22
Nearby weather at SBMG, REGIONAL DE MARINGA SILVIO NAME JUNIOR located 14.8 nautical miles from SSXO
Altimeter: 30.00
Visibility: 6.2 statute miles
Wind: 5 knots (from 040°)
Temp: 28°c / 82°f
Humidity: 32.5%

METAR: SBMG 220000Z 04005KT CAVOK 28/10 Q1016

(Powered by phpweather)
Runway 12 / 30
Dimensions:997.8 x 18m 3274' x 59'ft
Surface:Gravel
Runway 12 [A]Runway 30 [B]
Heading:103°TH 283°TH
Lat:
Lng:
23° 17' 16.16"S
52° 8' 2.18"W
23° 17' 23.84"S
52° 7' 27.82"W
User Notes and Comments
23° 17' 20" S / 52° 7' 45" W
Distance To
Airport ID:
Nearby Airports
(U) REGIONAL DE MARINGA SILVIO NAME JUNIOR 14.8 NM
SBMG ( WX ) SSE 151°
4 Recanto das Aguias 16.4 NM
SSHN E 79°
4 Fazenda Jussara 26.5 NM
SSHL SW 221°
(C) Paranavai 26.6 NM
SSPI WNW 301°
4 Fazenda Tres Minas 27.6 NM
SSMP SSE 164°
(U) FAZENDA JUNQUEIRA 2 30.2 NM
SSJP NNE 25°
4 Fazenda Barbacena 40.7 NM
SJBW SSE 159°
VFR Chart
Flight Planning at SkyVector.com